sensor_id;sensor_type;location;lat;lon;timestamp;P1;durP1;ratioP1;P2;durP2;ratioP2
76640;SDS011;65538;50.798;6.064;2023-07-29T00:00:12;4.90;;;2.07;;
76640;SDS011;65538;50.798;6.064;2023-07-29T00:02:38;3.25;;;2.00;;
76640;SDS011;65538;50.798;6.064;2023-07-29T00:05:03;4.57;;;1.87;;
76640;SDS011;65538;50.798;6.064;2023-07-29T00:07:28;3.92;;;2.05;;
76640;SDS011;65538;50.798;6.064;2023-07-29T00:09:54;4.57;;;1.57;;
76640;SDS011;65538;50.798;6.064;2023-07-29T00:12:19;2.70;;;1.80;;
76640;SDS011;65538;50.798;6.064;2023-07-29T00:14:44;3.63;;;1.70;;
76640;SDS011;65538;50.798;6.064;2023-07-29T00:17:09;4.27;;;1.90;;
76640;SDS011;65538;50.798;6.064;2023-07-29T00:19:34;3.63;;;1.67;;
76640;SDS011;65538;50.798;6.064;2023-07-29T00:22:00;9.03;;;1.80;;
76640;SDS011;65538;50.798;6.064;2023-07-29T00:24:25;3.17;;;1.23;;
76640;SDS011;65538;50.798;6.064;2023-07-29T00:26:50;2.30;;;1.37;;
76640;SDS011;65538;50.798;6.064;2023-07-29T00:29:15;3.73;;;1.63;;
76640;SDS011;65538;50.798;6.064;2023-07-29T00:31:40;4.30;;;2.00;;
76640;SDS011;65538;50.798;6.064;2023-07-29T00:34:05;2.73;;;1.53;;
76640;SDS011;65538;50.798;6.064;2023-07-29T00:36:31;2.73;;;1.53;;
76640;SDS011;65538;50.798;6.064;2023-07-29T00:38:56;4.43;;;1.87;;
76640;SDS011;65538;50.798;6.064;2023-07-29T00:41:22;3.25;;;1.85;;
76640;SDS011;65538;50.798;6.064;2023-07-29T00:43:47;3.05;;;2.05;;
76640;SDS011;65538;50.798;6.064;2023-07-29T00:46:12;3.17;;;2.23;;
76640;SDS011;65538;50.798;6.064;2023-07-29T00:48:38;5.22;;;2.20;;
76640;SDS011;65538;50.798;6.064;2023-07-29T00:51:03;4.87;;;2.40;;
76640;SDS011;65538;50.798;6.064;2023-07-29T00:53:28;3.07;;;2.10;;
76640;SDS011;65538;50.798;6.064;2023-07-29T00:55:53;3.23;;;2.13;;
76640;SDS011;65538;50.798;6.064;2023-07-29T00:58:19;3.43;;;2.00;;
76640;SDS011;65538;50.798;6.064;2023-07-29T01:00:44;3.70;;;2.20;;
76640;SDS011;65538;50.798;6.064;2023-07-29T01:03:09;3.50;;;1.90;;
76640;SDS011;65538;50.798;6.064;2023-07-29T01:05:59;3.37;;;2.37;;
76640;SDS011;65538;50.798;6.064;2023-07-29T01:08:41;2.80;;;1.83;;
76640;SDS011;65538;50.798;6.064;2023-07-29T01:11:12;3.20;;;1.90;;
76640;SDS011;65538;50.798;6.064;2023-07-29T01:13:44;3.03;;;1.88;;
76640;SDS011;65538;50.798;6.064;2023-07-29T01:16:17;3.85;;;2.17;;
76640;SDS011;65538;50.798;6.064;2023-07-29T01:18:44;3.58;;;2.70;;
76640;SDS011;65538;50.798;6.064;2023-07-29T01:21:12;3.20;;;2.22;;
76640;SDS011;65538;50.798;6.064;2023-07-29T01:23:38;3.28;;;1.63;;
76640;SDS011;65538;50.798;6.064;2023-07-29T01:26:03;2.50;;;1.30;;
76640;SDS011;65538;50.798;6.064;2023-07-29T01:28:29;2.43;;;1.37;;
76640;SDS011;65538;50.798;6.064;2023-07-29T01:33:33;2.47;;;1.15;;
76640;SDS011;65538;50.798;6.064;2023-07-29T01:36:06;3.25;;;1.40;;
76640;SDS011;65538;50.798;6.064;2023-07-29T01:38:33;3.03;;;1.08;;
76640;SDS011;65538;50.798;6.064;2023-07-29T01:41:04;4.43;;;1.45;;
76640;SDS011;65538;50.798;6.064;2023-07-29T01:43:29;3.20;;;1.33;;
76640;SDS011;65538;50.798;6.064;2023-07-29T01:45:55;2.33;;;1.27;;
76640;SDS011;65538;50.798;6.064;2023-07-29T01:48:21;2.33;;;1.15;;
76640;SDS011;65538;50.798;6.064;2023-07-29T01:50:46;2.55;;;1.17;;
76640;SDS011;65538;50.798;6.064;2023-07-29T01:53:12;2.42;;;1.45;;
76640;SDS011;65538;50.798;6.064;2023-07-29T01:55:37;2.57;;;1.50;;
76640;SDS011;65538;50.798;6.064;2023-07-29T01:58:02;2.43;;;1.40;;
76640;SDS011;65538;50.798;6.064;2023-07-29T02:00:27;3.63;;;1.93;;
76640;SDS011;65538;50.798;6.064;2023-07-29T02:02:52;4.33;;;1.53;;
76640;SDS011;65538;50.798;6.064;2023-07-29T02:05:18;4.03;;;1.90;;
76640;SDS011;65538;50.798;6.064;2023-07-29T02:07:43;3.13;;;1.63;;
76640;SDS011;65538;50.798;6.064;2023-07-29T02:10:08;5.00;;;2.23;;
76640;SDS011;65538;50.798;6.064;2023-07-29T02:12:33;5.03;;;2.22;;
76640;SDS011;65538;50.798;6.064;2023-07-29T02:14:59;3.67;;;2.13;;
76640;SDS011;65538;50.798;6.064;2023-07-29T02:17:24;6.33;;;2.67;;
76640;SDS011;65538;50.798;6.064;2023-07-29T02:19:51;3.90;;;2.60;;
76640;SDS011;65538;50.798;6.064;2023-07-29T02:22:16;5.63;;;2.40;;
76640;SDS011;65538;50.798;6.064;2023-07-29T02:24:42;5.22;;;2.85;;
76640;SDS011;65538;50.798;6.064;2023-07-29T02:27:07;5.30;;;3.20;;
76640;SDS011;65538;50.798;6.064;2023-07-29T02:29:33;4.83;;;3.27;;
76640;SDS011;65538;50.798;6.064;2023-07-29T02:31:58;5.53;;;3.53;;
76640;SDS011;65538;50.798;6.064;2023-07-29T02:34:23;4.32;;;3.60;;
76640;SDS011;65538;50.798;6.064;2023-07-29T02:36:48;5.77;;;3.33;;
76640;SDS011;65538;50.798;6.064;2023-07-29T02:39:14;5.73;;;3.43;;
76640;SDS011;65538;50.798;6.064;2023-07-29T02:41:39;5.17;;;3.63;;
76640;SDS011;65538;50.798;6.064;2023-07-29T02:44:05;5.40;;;3.23;;
76640;SDS011;65538;50.798;6.064;2023-07-29T02:46:30;4.70;;;3.55;;
76640;SDS011;65538;50.798;6.064;2023-07-29T02:48:55;6.23;;;3.30;;
76640;SDS011;65538;50.798;6.064;2023-07-29T02:51:20;5.47;;;3.83;;
76640;SDS011;65538;50.798;6.064;2023-07-29T02:53:46;4.40;;;3.30;;
76640;SDS011;65538;50.798;6.064;2023-07-29T02:56:11;5.23;;;3.60;;
76640;SDS011;65538;50.798;6.064;2023-07-29T02:58:36;5.72;;;3.90;;
76640;SDS011;65538;50.798;6.064;2023-07-29T03:01:02;5.93;;;3.63;;
76640;SDS011;65538;50.798;6.064;2023-07-29T03:03:28;5.65;;;3.90;;
76640;SDS011;65538;50.798;6.064;2023-07-29T03:06:06;5.57;;;3.93;;
76640;SDS011;65538;50.798;6.064;2023-07-29T03:08:32;5.05;;;3.92;;
76640;SDS011;65538;50.798;6.064;2023-07-29T03:10:57;5.55;;;3.47;;
76640;SDS011;65538;50.798;6.064;2023-07-29T03:13:22;5.68;;;3.70;;
76640;SDS011;65538;50.798;6.064;2023-07-29T03:15:47;5.23;;;3.80;;
76640;SDS011;65538;50.798;6.064;2023-07-29T03:18:13;9.30;;;3.85;;
76640;SDS011;65538;50.798;6.064;2023-07-29T03:20:39;5.53;;;4.30;;
76640;SDS011;65538;50.798;6.064;2023-07-29T03:23:04;5.87;;;3.77;;
76640;SDS011;65538;50.798;6.064;2023-07-29T03:25:29;4.47;;;3.50;;
76640;SDS011;65538;50.798;6.064;2023-07-29T03:27:54;4.83;;;3.63;;
76640;SDS011;65538;50.798;6.064;2023-07-29T03:30:20;5.07;;;3.95;;
76640;SDS011;65538;50.798;6.064;2023-07-29T03:32:46;5.00;;;3.88;;
76640;SDS011;65538;50.798;6.064;2023-07-29T03:35:11;6.07;;;3.87;;
76640;SDS011;65538;50.798;6.064;2023-07-29T03:37:37;4.87;;;3.47;;
76640;SDS011;65538;50.798;6.064;2023-07-29T03:40:02;5.03;;;3.40;;
76640;SDS011;65538;50.798;6.064;2023-07-29T03:42:28;5.90;;;3.22;;
76640;SDS011;65538;50.798;6.064;2023-07-29T03:44:53;6.40;;;3.57;;
76640;SDS011;65538;50.798;6.064;2023-07-29T03:47:18;6.03;;;3.63;;
76640;SDS011;65538;50.798;6.064;2023-07-29T03:49:43;5.57;;;3.53;;
76640;SDS011;65538;50.798;6.064;2023-07-29T03:52:08;5.67;;;3.57;;
76640;SDS011;65538;50.798;6.064;2023-07-29T03:54:34;5.63;;;3.47;;
76640;SDS011;65538;50.798;6.064;2023-07-29T03:56:59;7.27;;;3.80;;
76640;SDS011;65538;50.798;6.064;2023-07-29T03:59:24;5.03;;;3.10;;
76640;SDS011;65538;50.798;6.064;2023-07-29T04:01:49;7.63;;;4.00;;
76640;SDS011;65538;50.798;6.064;2023-07-29T04:04:15;5.27;;;3.93;;
76640;SDS011;65538;50.798;6.064;2023-07-29T04:06:40;10.43;;;3.93;;
76640;SDS011;65538;50.798;6.064;2023-07-29T04:09:05;7.27;;;3.70;;
76640;SDS011;65538;50.798;6.064;2023-07-29T04:11:30;6.90;;;3.97;;
76640;SDS011;65538;50.798;6.064;2023-07-29T04:13:55;7.03;;;4.40;;
76640;SDS011;65538;50.798;6.064;2023-07-29T04:16:21;6.93;;;4.40;;
76640;SDS011;65538;50.798;6.064;2023-07-29T04:18:46;8.10;;;3.95;;
76640;SDS011;65538;50.798;6.064;2023-07-29T04:21:11;7.17;;;4.37;;
76640;SDS011;65538;50.798;6.064;2023-07-29T04:23:37;7.53;;;5.03;;
76640;SDS011;65538;50.798;6.064;2023-07-29T04:26:02;8.75;;;4.72;;
76640;SDS011;65538;50.798;6.064;2023-07-29T04:28:27;8.80;;;4.67;;
76640;SDS011;65538;50.798;6.064;2023-07-29T04:30:53;7.97;;;4.90;;
76640;SDS011;65538;50.798;6.064;2023-07-29T04:33:18;10.43;;;4.80;;
76640;SDS011;65538;50.798;6.064;2023-07-29T04:35:43;7.55;;;4.80;;
76640;SDS011;65538;50.798;6.064;2023-07-29T04:38:09;7.18;;;4.82;;
76640;SDS011;65538;50.798;6.064;2023-07-29T04:40:34;6.63;;;4.40;;
76640;SDS011;65538;50.798;6.064;2023-07-29T04:43:02;6.67;;;4.43;;
76640;SDS011;65538;50.798;6.064;2023-07-29T04:45:28;6.72;;;4.47;;
76640;SDS011;65538;50.798;6.064;2023-07-29T04:47:54;10.00;;;4.72;;
76640;SDS011;65538;50.798;6.064;2023-07-29T04:50:19;7.57;;;4.53;;
76640;SDS011;65538;50.798;6.064;2023-07-29T04:52:44;6.82;;;4.20;;
76640;SDS011;65538;50.798;6.064;2023-07-29T04:55:10;8.73;;;4.57;;
76640;SDS011;65538;50.798;6.064;2023-07-29T04:57:35;9.30;;;5.03;;
76640;SDS011;65538;50.798;6.064;2023-07-29T05:00:00;9.67;;;5.37;;
76640;SDS011;65538;50.798;6.064;2023-07-29T05:02:25;9.18;;;5.10;;
76640;SDS011;65538;50.798;6.064;2023-07-29T05:04:50;7.63;;;5.03;;
76640;SDS011;65538;50.798;6.064;2023-07-29T05:07:16;8.37;;;5.17;;
76640;SDS011;65538;50.798;6.064;2023-07-29T05:09:41;7.57;;;5.43;;
76640;SDS011;65538;50.798;6.064;2023-07-29T05:12:06;8.40;;;5.13;;
76640;SDS011;65538;50.798;6.064;2023-07-29T05:14:32;9.43;;;5.30;;
76640;SDS011;65538;50.798;6.064;2023-07-29T05:16:57;7.43;;;5.80;;
76640;SDS011;65538;50.798;6.064;2023-07-29T05:19:22;8.07;;;5.23;;
76640;SDS011;65538;50.798;6.064;2023-07-29T05:21:47;11.03;;;5.63;;
76640;SDS011;65538;50.798;6.064;2023-07-29T05:24:12;7.57;;;5.50;;
76640;SDS011;65538;50.798;6.064;2023-07-29T05:26:38;6.73;;;4.83;;
76640;SDS011;65538;50.798;6.064;2023-07-29T05:29:03;7.97;;;5.03;;
76640;SDS011;65538;50.798;6.064;2023-07-29T05:31:29;7.40;;;4.97;;
76640;SDS011;65538;50.798;6.064;2023-07-29T05:33:54;5.63;;;4.20;;
76640;SDS011;65538;50.798;6.064;2023-07-29T05:36:19;10.00;;;3.50;;
76640;SDS011;65538;50.798;6.064;2023-07-29T05:38:45;4.97;;;3.50;;
76640;SDS011;65538;50.798;6.064;2023-07-29T05:41:10;4.70;;;2.90;;
76640;SDS011;65538;50.798;6.064;2023-07-29T05:43:35;5.28;;;3.45;;
76640;SDS011;65538;50.798;6.064;2023-07-29T05:46:00;4.83;;;3.50;;
76640;SDS011;65538;50.798;6.064;2023-07-29T05:48:25;8.00;;;3.23;;
76640;SDS011;65538;50.798;6.064;2023-07-29T05:50:51;6.07;;;3.20;;
76640;SDS011;65538;50.798;6.064;2023-07-29T05:53:16;8.80;;;3.20;;
76640;SDS011;65538;50.798;6.064;2023-07-29T05:55:41;5.00;;;3.10;;
76640;SDS011;65538;50.798;6.064;2023-07-29T05:58:06;4.90;;;2.80;;
76640;SDS011;65538;50.798;6.064;2023-07-29T06:00:31;7.80;;;3.23;;
76640;SDS011;65538;50.798;6.064;2023-07-29T06:02:57;4.53;;;2.70;;
76640;SDS011;65538;50.798;6.064;2023-07-29T06:05:22;8.87;;;3.20;;
76640;SDS011;65538;50.798;6.064;2023-07-29T06:07:47;4.57;;;2.88;;
76640;SDS011;65538;50.798;6.064;2023-07-29T06:10:13;4.60;;;2.85;;
76640;SDS011;65538;50.798;6.064;2023-07-29T06:12:38;6.65;;;2.67;;
76640;SDS011;65538;50.798;6.064;2023-07-29T06:15:04;7.70;;;3.10;;
76640;SDS011;65538;50.798;6.064;2023-07-29T06:17:29;8.90;;;2.90;;
76640;SDS011;65538;50.798;6.064;2023-07-29T06:19:55;4.97;;;2.80;;
76640;SDS011;65538;50.798;6.064;2023-07-29T06:22:20;4.53;;;2.97;;
76640;SDS011;65538;50.798;6.064;2023-07-29T06:24:45;3.83;;;2.50;;
76640;SDS011;65538;50.798;6.064;2023-07-29T06:27:10;5.53;;;2.73;;
76640;SDS011;65538;50.798;6.064;2023-07-29T06:29:35;4.23;;;2.70;;
76640;SDS011;65538;50.798;6.064;2023-07-29T06:32:01;5.07;;;2.87;;
76640;SDS011;65538;50.798;6.064;2023-07-29T06:34:26;5.20;;;2.67;;
76640;SDS011;65538;50.798;6.064;2023-07-29T06:36:51;5.40;;;2.77;;
76640;SDS011;65538;50.798;6.064;2023-07-29T06:39:16;5.20;;;2.63;;
76640;SDS011;65538;50.798;6.064;2023-07-29T06:41:43;6.35;;;2.92;;
76640;SDS011;65538;50.798;6.064;2023-07-29T06:44:08;5.10;;;2.50;;
76640;SDS011;65538;50.798;6.064;2023-07-29T06:46:33;7.37;;;2.50;;
76640;SDS011;65538;50.798;6.064;2023-07-29T06:48:58;4.40;;;2.40;;
76640;SDS011;65538;50.798;6.064;2023-07-29T06:51:24;4.73;;;2.30;;
76640;SDS011;65538;50.798;6.064;2023-07-29T06:53:49;7.00;;;2.50;;
76640;SDS011;65538;50.798;6.064;2023-07-29T06:56:14;5.10;;;2.33;;
76640;SDS011;65538;50.798;6.064;2023-07-29T06:58:39;5.20;;;2.33;;
76640;SDS011;65538;50.798;6.064;2023-07-29T07:01:04;6.70;;;2.43;;
76640;SDS011;65538;50.798;6.064;2023-07-29T07:03:30;4.27;;;2.40;;
76640;SDS011;65538;50.798;6.064;2023-07-29T07:05:55;4.13;;;2.00;;
76640;SDS011;65538;50.798;6.064;2023-07-29T07:08:20;4.40;;;2.33;;
76640;SDS011;65538;50.798;6.064;2023-07-29T07:10:46;4.10;;;2.23;;
76640;SDS011;65538;50.798;6.064;2023-07-29T07:13:11;5.35;;;2.10;;
76640;SDS011;65538;50.798;6.064;2023-07-29T07:15:37;5.93;;;1.87;;
76640;SDS011;65538;50.798;6.064;2023-07-29T07:18:02;4.93;;;1.83;;
76640;SDS011;65538;50.798;6.064;2023-07-29T07:20:27;3.77;;;2.03;;
76640;SDS011;65538;50.798;6.064;2023-07-29T07:22:52;2.93;;;1.63;;
76640;SDS011;65538;50.798;6.064;2023-07-29T07:25:17;5.40;;;2.00;;
76640;SDS011;65538;50.798;6.064;2023-07-29T07:27:43;3.37;;;1.73;;
76640;SDS011;65538;50.798;6.064;2023-07-29T07:30:08;3.40;;;1.70;;
76640;SDS011;65538;50.798;6.064;2023-07-29T07:32:33;2.90;;;1.70;;
76640;SDS011;65538;50.798;6.064;2023-07-29T07:34:58;2.50;;;1.20;;
76640;SDS011;65538;50.798;6.064;2023-07-29T07:37:23;3.20;;;1.60;;
76640;SDS011;65538;50.798;6.064;2023-07-29T07:39:49;2.63;;;1.33;;
76640;SDS011;65538;50.798;6.064;2023-07-29T07:42:14;3.37;;;1.60;;
76640;SDS011;65538;50.798;6.064;2023-07-29T07:44:39;2.80;;;1.30;;
76640;SDS011;65538;50.798;6.064;2023-07-29T07:47:05;4.33;;;1.50;;
76640;SDS011;65538;50.798;6.064;2023-07-29T07:49:30;2.37;;;1.37;;
76640;SDS011;65538;50.798;6.064;2023-07-29T07:51:55;4.80;;;1.30;;
76640;SDS011;65538;50.798;6.064;2023-07-29T07:54:20;3.00;;;1.13;;
76640;SDS011;65538;50.798;6.064;2023-07-29T07:56:45;4.63;;;1.50;;
76640;SDS011;65538;50.798;6.064;2023-07-29T07:59:10;5.10;;;1.70;;
76640;SDS011;65538;50.798;6.064;2023-07-29T08:01:36;6.40;;;2.13;;
76640;SDS011;65538;50.798;6.064;2023-07-29T08:04:01;3.47;;;1.30;;
76640;SDS011;65538;50.798;6.064;2023-07-29T08:06:26;3.97;;;1.30;;
76640;SDS011;65538;50.798;6.064;2023-07-29T08:08:52;3.37;;;1.30;;
76640;SDS011;65538;50.798;6.064;2023-07-29T08:11:17;2.20;;;1.20;;
76640;SDS011;65538;50.798;6.064;2023-07-29T08:13:42;4.33;;;1.40;;
76640;SDS011;65538;50.798;6.064;2023-07-29T08:16:07;3.27;;;1.67;;
76640;SDS011;65538;50.798;6.064;2023-07-29T08:18:32;3.00;;;1.20;;
76640;SDS011;65538;50.798;6.064;2023-07-29T08:20:58;3.33;;;1.53;;
76640;SDS011;65538;50.798;6.064;2023-07-29T08:23:24;2.33;;;1.30;;
76640;SDS011;65538;50.798;6.064;2023-07-29T08:25:56;3.00;;;1.33;;
76640;SDS011;65538;50.798;6.064;2023-07-29T08:28:26;3.78;;;1.33;;
76640;SDS011;65538;50.798;6.064;2023-07-29T08:30:51;3.30;;;1.70;;
76640;SDS011;65538;50.798;6.064;2023-07-29T08:33:16;3.00;;;1.53;;
76640;SDS011;65538;50.798;6.064;2023-07-29T08:35:41;6.57;;;1.67;;
76640;SDS011;65538;50.798;6.064;2023-07-29T08:38:07;3.77;;;1.30;;
76640;SDS011;65538;50.798;6.064;2023-07-29T08:40:32;4.20;;;1.45;;
76640;SDS011;65538;50.798;6.064;2023-07-29T08:42:59;3.20;;;1.20;;
76640;SDS011;65538;50.798;6.064;2023-07-29T08:45:29;4.03;;;1.75;;
76640;SDS011;65538;50.798;6.064;2023-07-29T08:47:56;2.88;;;1.50;;
76640;SDS011;65538;50.798;6.064;2023-07-29T08:50:22;3.58;;;1.50;;
76640;SDS011;65538;50.798;6.064;2023-07-29T08:52:49;3.13;;;1.42;;
76640;SDS011;65538;50.798;6.064;2023-07-29T08:55:16;3.28;;;1.50;;
76640;SDS011;65538;50.798;6.064;2023-07-29T08:57:41;3.60;;;1.77;;
76640;SDS011;65538;50.798;6.064;2023-07-29T09:00:07;4.30;;;1.30;;
76640;SDS011;65538;50.798;6.064;2023-07-29T09:02:32;3.80;;;1.60;;
76640;SDS011;65538;50.798;6.064;2023-07-29T09:04:57;7.10;;;1.60;;
76640;SDS011;65538;50.798;6.064;2023-07-29T09:07:23;2.60;;;1.30;;
76640;SDS011;65538;50.798;6.064;2023-07-29T09:09:48;4.13;;;1.40;;
76640;SDS011;65538;50.798;6.064;2023-07-29T09:12:13;4.37;;;1.87;;
76640;SDS011;65538;50.798;6.064;2023-07-29T09:14:38;4.00;;;1.80;;
76640;SDS011;65538;50.798;6.064;2023-07-29T09:17:06;3.70;;;1.77;;
76640;SDS011;65538;50.798;6.064;2023-07-29T09:19:32;4.20;;;1.70;;
76640;SDS011;65538;50.798;6.064;2023-07-29T09:21:57;4.10;;;2.00;;
76640;SDS011;65538;50.798;6.064;2023-07-29T09:24:23;4.53;;;2.60;;
76640;SDS011;65538;50.798;6.064;2023-07-29T09:26:49;4.38;;;1.77;;
76640;SDS011;65538;50.798;6.064;2023-07-29T09:29:14;3.53;;;1.85;;
76640;SDS011;65538;50.798;6.064;2023-07-29T09:31:39;3.10;;;1.67;;
76640;SDS011;65538;50.798;6.064;2023-07-29T09:34:04;3.30;;;1.90;;
76640;SDS011;65538;50.798;6.064;2023-07-29T09:36:31;4.05;;;2.22;;
76640;SDS011;65538;50.798;6.064;2023-07-29T09:38:56;2.45;;;1.27;;
76640;SDS011;65538;50.798;6.064;2023-07-29T09:41:25;3.88;;;1.73;;
76640;SDS011;65538;50.798;6.064;2023-07-29T09:43:54;4.47;;;1.58;;
76640;SDS011;65538;50.798;6.064;2023-07-29T09:46:22;5.72;;;1.83;;
76640;SDS011;65538;50.798;6.064;2023-07-29T09:48:47;3.72;;;1.50;;
76640;SDS011;65538;50.798;6.064;2023-07-29T09:51:15;2.97;;;1.75;;
76640;SDS011;65538;50.798;6.064;2023-07-29T09:53:44;3.03;;;1.20;;
76640;SDS011;65538;50.798;6.064;2023-07-29T09:56:10;3.28;;;2.08;;
76640;SDS011;65538;50.798;6.064;2023-07-29T09:58:35;3.53;;;1.45;;
76640;SDS011;65538;50.798;6.064;2023-07-29T10:01:03;3.92;;;1.90;;
76640;SDS011;65538;50.798;6.064;2023-07-29T10:03:28;3.37;;;1.53;;
76640;SDS011;65538;50.798;6.064;2023-07-29T10:05:54;3.63;;;2.00;;
76640;SDS011;65538;50.798;6.064;2023-07-29T10:08:20;3.00;;;1.73;;
76640;SDS011;65538;50.798;6.064;2023-07-29T10:10:46;6.63;;;1.60;;
76640;SDS011;65538;50.798;6.064;2023-07-29T10:13:11;4.32;;;1.73;;
76640;SDS011;65538;50.798;6.064;2023-07-29T10:15:37;4.30;;;1.48;;
76640;SDS011;65538;50.798;6.064;2023-07-29T10:18:02;4.40;;;1.80;;
76640;SDS011;65538;50.798;6.064;2023-07-29T10:20:29;3.55;;;1.40;;
76640;SDS011;65538;50.798;6.064;2023-07-29T10:22:55;2.78;;;1.52;;
76640;SDS011;65538;50.798;6.064;2023-07-29T10:25:24;5.03;;;1.67;;
76640;SDS011;65538;50.798;6.064;2023-07-29T10:27:56;2.72;;;1.17;;
76640;SDS011;65538;50.798;6.064;2023-07-29T10:30:22;4.72;;;2.10;;
76640;SDS011;65538;50.798;6.064;2023-07-29T10:32:48;4.00;;;1.63;;
76640;SDS011;65538;50.798;6.064;2023-07-29T10:35:14;4.40;;;1.70;;
76640;SDS011;65538;50.798;6.064;2023-07-29T10:37:39;2.85;;;1.65;;
76640;SDS011;65538;50.798;6.064;2023-07-29T10:40:07;3.85;;;1.83;;
76640;SDS011;65538;50.798;6.064;2023-07-29T10:42:33;2.80;;;1.33;;
76640;SDS011;65538;50.798;6.064;2023-07-29T10:44:58;3.53;;;1.33;;
76640;SDS011;65538;50.798;6.064;2023-07-29T10:47:27;3.00;;;1.70;;
76640;SDS011;65538;50.798;6.064;2023-07-29T10:49:53;3.95;;;1.67;;
76640;SDS011;65538;50.798;6.064;2023-07-29T10:55:00;3.22;;;1.63;;
76640;SDS011;65538;50.798;6.064;2023-07-29T10:59:57;3.20;;;1.60;;
76640;SDS011;65538;50.798;6.064;2023-07-29T11:02:28;2.92;;;1.73;;
76640;SDS011;65538;50.798;6.064;2023-07-29T11:04:54;3.13;;;1.55;;
76640;SDS011;65538;50.798;6.064;2023-07-29T11:07:20;2.58;;;1.65;;
76640;SDS011;65538;50.798;6.064;2023-07-29T11:14:57;2.20;;;1.00;;
76640;SDS011;65538;50.798;6.064;2023-07-29T11:17:22;2.43;;;1.40;;
76640;SDS011;65538;50.798;6.064;2023-07-29T11:19:48;3.15;;;1.50;;
76640;SDS011;65538;50.798;6.064;2023-07-29T11:22:14;2.60;;;1.27;;
76640;SDS011;65538;50.798;6.064;2023-07-29T11:24:43;2.47;;;1.30;;
76640;SDS011;65538;50.798;6.064;2023-07-29T11:27:11;2.83;;;1.50;;
76640;SDS011;65538;50.798;6.064;2023-07-29T11:29:37;2.65;;;1.65;;
76640;SDS011;65538;50.798;6.064;2023-07-29T11:32:02;3.67;;;1.63;;
76640;SDS011;65538;50.798;6.064;2023-07-29T11:34:31;3.10;;;1.55;;
76640;SDS011;65538;50.798;6.064;2023-07-29T11:36:56;4.10;;;1.48;;
76640;SDS011;65538;50.798;6.064;2023-07-29T11:39:22;2.23;;;1.03;;
76640;SDS011;65538;50.798;6.064;2023-07-29T11:41:47;2.77;;;1.57;;
76640;SDS011;65538;50.798;6.064;2023-07-29T11:44:16;2.57;;;1.20;;
76640;SDS011;65538;50.798;6.064;2023-07-29T11:46:41;3.65;;;1.50;;
76640;SDS011;65538;50.798;6.064;2023-07-29T11:49:07;2.35;;;1.38;;
76640;SDS011;65538;50.798;6.064;2023-07-29T11:51:32;2.70;;;1.53;;
76640;SDS011;65538;50.798;6.064;2023-07-29T11:53:58;2.73;;;1.50;;
76640;SDS011;65538;50.798;6.064;2023-07-29T11:56:23;2.70;;;1.43;;
76640;SDS011;65538;50.798;6.064;2023-07-29T11:58:49;2.53;;;1.45;;
76640;SDS011;65538;50.798;6.064;2023-07-29T12:01:14;3.05;;;1.50;;
76640;SDS011;65538;50.798;6.064;2023-07-29T12:03:39;2.73;;;1.50;;
76640;SDS011;65538;50.798;6.064;2023-07-29T12:06:04;2.90;;;1.23;;
76640;SDS011;65538;50.798;6.064;2023-07-29T12:08:30;3.90;;;2.07;;
76640;SDS011;65538;50.798;6.064;2023-07-29T12:10:55;3.27;;;1.47;;
76640;SDS011;65538;50.798;6.064;2023-07-29T12:13:23;2.47;;;1.40;;
76640;SDS011;65538;50.798;6.064;2023-07-29T12:15:48;3.03;;;1.50;;
76640;SDS011;65538;50.798;6.064;2023-07-29T12:18:13;3.37;;;1.63;;
76640;SDS011;65538;50.798;6.064;2023-07-29T12:20:39;2.95;;;1.50;;
76640;SDS011;65538;50.798;6.064;2023-07-29T12:23:05;2.87;;;1.50;;
76640;SDS011;65538;50.798;6.064;2023-07-29T12:25:32;3.78;;;1.50;;
76640;SDS011;65538;50.798;6.064;2023-07-29T12:28:06;3.00;;;1.70;;
76640;SDS011;65538;50.798;6.064;2023-07-29T12:30:31;3.20;;;1.67;;
76640;SDS011;65538;50.798;6.064;2023-07-29T12:32:57;4.25;;;1.70;;
76640;SDS011;65538;50.798;6.064;2023-07-29T12:35:22;2.70;;;1.43;;
76640;SDS011;65538;50.798;6.064;2023-07-29T12:37:57;3.53;;;1.70;;
76640;SDS011;65538;50.798;6.064;2023-07-29T12:40:23;3.42;;;1.90;;
76640;SDS011;65538;50.798;6.064;2023-07-29T12:42:49;3.28;;;1.95;;
76640;SDS011;65538;50.798;6.064;2023-07-29T12:45:15;4.40;;;2.30;;
76640;SDS011;65538;50.798;6.064;2023-07-29T12:47:40;3.63;;;2.20;;
76640;SDS011;65538;50.798;6.064;2023-07-29T12:50:05;5.30;;;2.50;;
76640;SDS011;65538;50.798;6.064;2023-07-29T12:52:31;4.28;;;2.70;;
76640;SDS011;65538;50.798;6.064;2023-07-29T12:54:56;3.83;;;2.70;;
76640;SDS011;65538;50.798;6.064;2023-07-29T12:57:21;8.00;;;2.97;;
76640;SDS011;65538;50.798;6.064;2023-07-29T12:59:46;5.47;;;3.10;;
76640;SDS011;65538;50.798;6.064;2023-07-29T13:02:12;6.00;;;4.00;;
76640;SDS011;65538;50.798;6.064;2023-07-29T13:04:37;5.37;;;3.50;;
76640;SDS011;65538;50.798;6.064;2023-07-29T13:07:02;6.90;;;3.80;;
76640;SDS011;65538;50.798;6.064;2023-07-29T13:09:27;8.43;;;3.20;;
76640;SDS011;65538;50.798;6.064;2023-07-29T13:11:53;4.18;;;2.90;;
76640;SDS011;65538;50.798;6.064;2023-07-29T13:14:18;5.87;;;2.70;;
76640;SDS011;65538;50.798;6.064;2023-07-29T13:16:43;5.60;;;3.17;;
76640;SDS011;65538;50.798;6.064;2023-07-29T13:19:08;4.70;;;3.10;;
76640;SDS011;65538;50.798;6.064;2023-07-29T13:21:33;5.07;;;2.47;;
76640;SDS011;65538;50.798;6.064;2023-07-29T13:23:58;6.07;;;2.50;;
76640;SDS011;65538;50.798;6.064;2023-07-29T13:26:24;5.20;;;3.07;;
76640;SDS011;65538;50.798;6.064;2023-07-29T13:28:49;4.67;;;2.63;;
76640;SDS011;65538;50.798;6.064;2023-07-29T13:31:14;5.70;;;2.90;;
76640;SDS011;65538;50.798;6.064;2023-07-29T13:33:39;3.27;;;1.90;;
76640;SDS011;65538;50.798;6.064;2023-07-29T13:36:05;2.90;;;1.97;;
76640;SDS011;65538;50.798;6.064;2023-07-29T13:38:30;4.22;;;2.10;;
76640;SDS011;65538;50.798;6.064;2023-07-29T13:40:55;3.60;;;2.20;;
76640;SDS011;65538;50.798;6.064;2023-07-29T13:43:21;4.80;;;2.13;;
76640;SDS011;65538;50.798;6.064;2023-07-29T13:45:46;6.07;;;1.98;;
76640;SDS011;65538;50.798;6.064;2023-07-29T13:48:13;3.63;;;1.98;;
76640;SDS011;65538;50.798;6.064;2023-07-29T13:50:38;5.30;;;2.28;;
76640;SDS011;65538;50.798;6.064;2023-07-29T13:53:04;3.07;;;1.70;;
76640;SDS011;65538;50.798;6.064;2023-07-29T13:55:29;2.70;;;1.77;;
76640;SDS011;65538;50.798;6.064;2023-07-29T13:57:54;3.80;;;2.00;;
76640;SDS011;65538;50.798;6.064;2023-07-29T14:00:19;4.67;;;2.10;;
76640;SDS011;65538;50.798;6.064;2023-07-29T14:02:45;4.63;;;2.38;;
76640;SDS011;65538;50.798;6.064;2023-07-29T14:05:10;5.53;;;2.73;;
76640;SDS011;65538;50.798;6.064;2023-07-29T14:07:36;4.55;;;2.55;;
76640;SDS011;65538;50.798;6.064;2023-07-29T14:10:01;4.87;;;2.23;;
76640;SDS011;65538;50.798;6.064;2023-07-29T14:12:27;5.70;;;2.13;;
76640;SDS011;65538;50.798;6.064;2023-07-29T14:14:52;2.83;;;1.50;;
76640;SDS011;65538;50.798;6.064;2023-07-29T14:17:17;3.27;;;1.60;;
76640;SDS011;65538;50.798;6.064;2023-07-29T14:19:42;3.08;;;1.75;;
76640;SDS011;65538;50.798;6.064;2023-07-29T14:22:08;2.80;;;1.50;;
76640;SDS011;65538;50.798;6.064;2023-07-29T14:24:33;2.77;;;1.63;;
76640;SDS011;65538;50.798;6.064;2023-07-29T14:26:58;3.57;;;1.90;;
76640;SDS011;65538;50.798;6.064;2023-07-29T14:29:23;3.80;;;1.80;;
76640;SDS011;65538;50.798;6.064;2023-07-29T14:31:49;3.30;;;2.00;;
76640;SDS011;65538;50.798;6.064;2023-07-29T14:34:14;3.63;;;2.03;;
76640;SDS011;65538;50.798;6.064;2023-07-29T14:36:39;14.80;;;9.10;;
76640;SDS011;65538;50.798;6.064;2023-07-29T14:39:04;6.83;;;4.13;;
76640;SDS011;65538;50.798;6.064;2023-07-29T14:41:30;4.47;;;2.65;;
76640;SDS011;65538;50.798;6.064;2023-07-29T14:43:55;3.35;;;2.00;;
76640;SDS011;65538;50.798;6.064;2023-07-29T14:46:20;2.87;;;1.77;;
76640;SDS011;65538;50.798;6.064;2023-07-29T14:48:46;3.43;;;2.00;;
76640;SDS011;65538;50.798;6.064;2023-07-29T14:51:12;3.67;;;2.22;;